createdAt,value
2017-12-25T00:00:00.952Z,0
2017-12-25T00:01:02.553Z,0
2017-12-25T00:02:04.156Z,0
2017-12-25T00:03:05.765Z,0
2017-12-25T00:04:07.371Z,0
2017-12-25T00:05:08.976Z,0
2017-12-25T00:06:10.586Z,0
2017-12-25T00:07:12.188Z,0
2017-12-25T00:08:13.796Z,0
2017-12-25T00:09:15.405Z,0
2017-12-25T00:10:17.008Z,0
2017-12-25T00:11:18.610Z,0
2017-12-25T00:12:20.221Z,0
2017-12-25T00:13:21.828Z,0
2017-12-25T00:14:23.430Z,0
2017-12-25T00:15:25.039Z,0
2017-12-25T00:16:26.639Z,0
2017-12-25T00:17:28.249Z,0
2017-12-25T00:18:29.850Z,0
2017-12-25T00:19:31.459Z,0
2017-12-25T00:20:33.062Z,0
2017-12-25T00:21:34.666Z,0
2017-12-25T00:22:36.271Z,0
2017-12-25T00:23:37.877Z,0
2017-12-25T00:24:39.487Z,0
2017-12-25T00:25:41.089Z,0
2017-12-25T00:26:42.695Z,0
2017-12-25T00:27:44.306Z,0
2017-12-25T00:28:45.913Z,0
2017-12-25T00:29:47.513Z,0
2017-12-25T00:30:49.122Z,0
2017-12-25T00:31:50.725Z,0
2017-12-25T00:32:52.335Z,0
2017-12-25T00:33:53.939Z,0
2017-12-25T00:34:55.553Z,0
2017-12-25T00:35:57.147Z,0
2017-12-25T00:36:58.754Z,0
2017-12-25T00:38:00.356Z,0
2017-12-25T00:39:01.959Z,0
2017-12-25T00:40:03.569Z,0
2017-12-25T00:41:05.176Z,0
2017-12-25T00:42:06.781Z,0
2017-12-25T00:43:08.383Z,0
2017-12-25T00:44:09.991Z,0
2017-12-25T00:45:11.597Z,0
2017-12-25T00:46:13.201Z,0
2017-12-25T00:47:14.800Z,0
2017-12-25T00:48:16.402Z,0
2017-12-25T00:49:18.011Z,0
2017-12-25T00:50:19.610Z,0
2017-12-25T00:51:21.215Z,0
2017-12-25T00:52:22.822Z,0
2017-12-25T00:53:24.427Z,0
2017-12-25T00:54:26.035Z,0
2017-12-25T00:55:27.643Z,0
2017-12-25T00:56:29.246Z,0
2017-12-25T00:57:30.847Z,0
2017-12-25T00:58:32.454Z,0
2017-12-25T00:59:34.062Z,0
2017-12-25T01:00:35.663Z,0
2017-12-25T01:01:37.265Z,0
2017-12-25T01:02:38.879Z,0
2017-12-25T01:03:40.484Z,0
2017-12-25T01:04:42.090Z,0
2017-12-25T01:05:43.691Z,0
2017-12-25T01:06:45.299Z,0
2017-12-25T01:07:46.906Z,0
2017-12-25T01:08:48.510Z,0
2017-12-25T01:09:50.115Z,0
2017-12-25T01:10:51.721Z,0
2017-12-25T01:11:53.323Z,0
2017-12-25T01:12:54.931Z,0
2017-12-25T01:13:56.532Z,0
2017-12-25T01:14:58.139Z,0
2017-12-25T01:15:59.743Z,0
2017-12-25T01:17:01.351Z,0
2017-12-25T01:18:02.956Z,0
2017-12-25T01:19:04.560Z,0
2017-12-25T01:20:06.169Z,0
2017-12-25T01:21:07.770Z,0
2017-12-25T01:22:09.376Z,0
2017-12-25T01:23:10.979Z,0
2017-12-25T01:24:12.583Z,0
2017-12-25T01:25:14.187Z,0
2017-12-25T01:26:15.792Z,0
2017-12-25T01:27:17.393Z,0
2017-12-25T01:28:19.002Z,0
2017-12-25T01:29:20.605Z,0
2017-12-25T01:30:22.214Z,0
2017-12-25T01:31:23.817Z,0
2017-12-25T01:32:25.428Z,0
2017-12-25T01:33:27.030Z,0
2017-12-25T01:34:28.638Z,0
2017-12-25T01:35:30.240Z,0
2017-12-25T01:36:31.847Z,0
2017-12-25T01:37:33.457Z,0
2017-12-25T01:38:35.065Z,0
2017-12-25T01:39:36.674Z,0
2017-12-25T01:40:38.279Z,0
2017-12-25T01:41:39.885Z,0
2017-12-25T01:42:41.488Z,0
2017-12-25T01:43:43.094Z,0
2017-12-25T01:44:44.700Z,0
2017-12-25T01:45:46.302Z,0
2017-12-25T01:46:47.905Z,0
2017-12-25T01:47:49.510Z,0
2017-12-25T01:48:51.116Z,0
2017-12-25T01:49:52.760Z,0
2017-12-25T01:50:54.323Z,0
2017-12-25T01:51:55.932Z,0
2017-12-25T01:52:57.535Z,0
2017-12-25T01:53:59.141Z,0
2017-12-25T01:55:00.748Z,0
2017-12-25T01:56:02.347Z,0
2017-12-25T01:57:03.952Z,0
2017-12-25T01:58:05.559Z,0
2017-12-25T01:59:07.165Z,0
2017-12-25T02:00:08.773Z,0
2017-12-25T02:01:10.373Z,0
2017-12-25T02:02:11.981Z,0
2017-12-25T02:03:13.581Z,0
2017-12-25T02:04:15.193Z,0
2017-12-25T02:05:16.793Z,0
2017-12-25T02:06:18.399Z,0
2017-12-25T02:07:20.002Z,0
2017-12-25T02:08:21.609Z,0
2017-12-25T02:09:23.215Z,0
2017-12-25T02:10:24.818Z,0
2017-12-25T02:11:26.420Z,0
2017-12-25T02:12:28.027Z,0
2017-12-25T02:13:29.635Z,0
2017-12-25T02:14:31.238Z,0
2017-12-25T02:15:32.844Z,0
2017-12-25T02:16:34.445Z,0
2017-12-25T02:17:36.055Z,0
2017-12-25T02:18:37.654Z,0
2017-12-25T02:19:39.262Z,0
2017-12-25T02:20:40.863Z,0
2017-12-25T02:21:42.471Z,0
2017-12-25T02:22:44.074Z,0
2017-12-25T02:23:45.681Z,0
2017-12-25T02:24:47.281Z,0
2017-12-25T02:25:48.888Z,0
2017-12-25T02:26:50.494Z,0
2017-12-25T02:27:52.097Z,0
2017-12-25T02:28:53.708Z,0
2017-12-25T02:29:55.312Z,0
2017-12-25T02:30:56.916Z,0
2017-12-25T02:31:58.518Z,0
2017-12-25T02:33:00.118Z,0
2017-12-25T02:34:01.727Z,0
2017-12-25T02:35:03.330Z,0
2017-12-25T02:36:04.934Z,0
2017-12-25T02:37:06.543Z,0
2017-12-25T02:38:08.150Z,0
2017-12-25T02:39:09.749Z,0
2017-12-25T02:40:11.352Z,0
2017-12-25T02:41:12.961Z,0
2017-12-25T02:42:14.563Z,0
2017-12-25T02:43:16.173Z,0
2017-12-25T02:44:17.782Z,0
2017-12-25T02:45:19.381Z,0
2017-12-25T02:46:20.989Z,0
2017-12-25T02:47:22.593Z,0
2017-12-25T02:48:24.199Z,0
2017-12-25T02:49:25.806Z,0
2017-12-25T02:50:27.409Z,0
2017-12-25T02:51:29.017Z,0
2017-12-25T02:52:30.615Z,0
2017-12-25T02:53:32.223Z,0
2017-12-25T02:54:33.828Z,0
2017-12-25T02:55:35.430Z,0
2017-12-25T02:56:37.033Z,0
2017-12-25T02:57:38.644Z,0
2017-12-25T02:58:40.248Z,0
2017-12-25T02:59:41.855Z,0
2017-12-25T03:00:43.461Z,0
2017-12-25T03:01:45.067Z,0
2017-12-25T03:02:46.669Z,0
2017-12-25T03:03:48.273Z,0
2017-12-25T03:04:49.882Z,0
2017-12-25T03:05:51.485Z,0
2017-12-25T03:06:53.088Z,0
2017-12-25T03:07:54.693Z,0
2017-12-25T03:08:56.299Z,0
2017-12-25T03:09:57.906Z,0
2017-12-25T03:10:59.505Z,0
2017-12-25T03:12:01.113Z,0
2017-12-25T03:13:02.722Z,0
2017-12-25T03:14:04.320Z,0
2017-12-25T03:15:05.927Z,0
2017-12-25T03:16:07.529Z,0
2017-12-25T03:17:09.142Z,0
2017-12-25T03:18:10.742Z,0
2017-12-25T03:19:12.348Z,0
2017-12-25T03:20:13.956Z,0
2017-12-25T03:21:15.559Z,0
2017-12-25T03:22:17.159Z,0
2017-12-25T03:23:18.766Z,0
2017-12-25T03:24:20.368Z,0
2017-12-25T03:25:21.974Z,0
2017-12-25T03:26:23.578Z,0
2017-12-25T03:27:25.186Z,0
2017-12-25T03:28:26.787Z,0
2017-12-25T03:29:28.393Z,0
2017-12-25T03:30:29.996Z,0
2017-12-25T03:31:31.597Z,0
2017-12-25T03:32:33.199Z,0
2017-12-25T03:33:34.806Z,0
2017-12-25T03:34:36.410Z,0
2017-12-25T03:35:38.018Z,0
2017-12-25T03:36:39.618Z,0
2017-12-25T03:37:41.220Z,0
2017-12-25T03:38:42.829Z,0
2017-12-25T03:39:44.433Z,0
2017-12-25T03:40:46.040Z,0
2017-12-25T03:41:47.644Z,0
2017-12-25T03:42:49.250Z,0
2017-12-25T03:43:50.850Z,0
2017-12-25T03:44:52.458Z,0
2017-12-25T03:45:54.059Z,0
2017-12-25T03:46:55.668Z,0
2017-12-25T03:47:57.271Z,0
2017-12-25T03:48:58.881Z,0
2017-12-25T03:50:00.484Z,0
2017-12-25T03:51:02.091Z,0
2017-12-25T03:52:03.691Z,0
2017-12-25T03:53:05.295Z,0
2017-12-25T03:54:06.903Z,0
2017-12-25T03:55:08.515Z,0
2017-12-25T03:56:10.118Z,0
2017-12-25T03:57:11.718Z,0
2017-12-25T03:58:13.322Z,0
2017-12-25T03:59:14.927Z,0
2017-12-25T04:00:16.534Z,0
2017-12-25T04:01:18.133Z,0
2017-12-25T04:02:19.738Z,0
2017-12-25T04:03:21.346Z,0
2017-12-25T04:04:22.990Z,0
2017-12-25T04:05:24.553Z,0
2017-12-25T04:06:26.155Z,0
2017-12-25T04:07:27.759Z,0
2017-12-25T04:08:29.366Z,0
2017-12-25T04:09:30.971Z,0
2017-12-25T04:10:32.574Z,0
2017-12-25T04:11:34.180Z,0
2017-12-25T04:12:35.780Z,0
2017-12-25T04:13:37.396Z,0
2017-12-25T04:14:38.995Z,0
2017-12-25T04:15:40.599Z,0
2017-12-25T04:16:42.201Z,0
2017-12-25T04:17:43.810Z,0
2017-12-25T04:18:45.415Z,0
2017-12-25T04:19:47.018Z,0
2017-12-25T04:20:48.621Z,0
2017-12-25T04:21:50.226Z,0
2017-12-25T04:22:51.832Z,0
2017-12-25T04:23:53.440Z,0
2017-12-25T04:24:55.042Z,0
2017-12-25T04:25:56.644Z,0
2017-12-25T04:26:58.250Z,0
2017-12-25T04:27:59.849Z,0
2017-12-25T04:29:01.458Z,0
2017-12-25T04:30:03.059Z,0
2017-12-25T04:31:04.669Z,0
2017-12-25T04:32:06.272Z,0
2017-12-25T04:33:07.878Z,0
2017-12-25T04:34:09.480Z,0
2017-12-25T04:35:11.085Z,0
2017-12-25T04:36:12.687Z,0
2017-12-25T04:37:14.295Z,0
2017-12-25T04:38:15.903Z,0
2017-12-25T04:39:17.508Z,0
2017-12-25T04:40:19.115Z,0
2017-12-25T04:41:20.711Z,0
2017-12-25T04:42:22.320Z,0
2017-12-25T04:43:23.926Z,0
2017-12-25T04:44:25.529Z,0
2017-12-25T04:45:27.133Z,0
2017-12-25T04:46:28.743Z,0
2017-12-25T04:47:30.343Z,0
2017-12-25T04:48:31.951Z,0
2017-12-25T04:49:33.551Z,0
2017-12-25T04:50:35.157Z,0
2017-12-25T04:51:36.759Z,0
2017-12-25T04:52:38.369Z,0
2017-12-25T04:53:39.972Z,0
2017-12-25T04:54:41.572Z,0
2017-12-25T04:55:43.182Z,0
2017-12-25T04:56:44.779Z,0
2017-12-25T04:57:46.388Z,0
2017-12-25T04:58:47.990Z,0
2017-12-25T04:59:49.592Z,0
2017-12-25T05:00:51.206Z,0
2017-12-25T05:01:52.808Z,0
2017-12-25T05:02:54.408Z,0
2017-12-25T05:03:56.007Z,0
2017-12-25T05:04:57.618Z,0
2017-12-25T05:05:59.224Z,0
2017-12-25T05:07:00.827Z,0
2017-12-25T05:08:02.433Z,0
2017-12-25T05:09:04.041Z,0
2017-12-25T05:10:05.641Z,0
2017-12-25T05:11:07.251Z,0
2017-12-25T05:12:08.856Z,0
2017-12-25T05:13:10.457Z,0
2017-12-25T05:14:12.060Z,0
2017-12-25T05:15:13.668Z,0
2017-12-25T05:16:15.274Z,0
2017-12-25T05:17:16.873Z,0
2017-12-25T05:18:18.480Z,0
2017-12-25T05:19:20.087Z,0
2017-12-25T05:20:21.696Z,0
2017-12-25T05:21:23.298Z,0
2017-12-25T05:22:24.901Z,0
2017-12-25T05:23:26.510Z,0
2017-12-25T05:24:28.118Z,0
2017-12-25T05:25:29.718Z,0
2017-12-25T05:26:31.323Z,0
2017-12-25T05:27:32.931Z,0
2017-12-25T05:28:34.536Z,0
2017-12-25T05:29:36.145Z,0
2017-12-25T05:30:37.745Z,0
2017-12-25T05:31:39.349Z,0
2017-12-25T05:32:40.953Z,0
2017-12-25T05:33:42.563Z,0
2017-12-25T05:34:44.161Z,0
2017-12-25T05:35:45.770Z,0
2017-12-25T05:36:47.372Z,0
2017-12-25T05:37:48.981Z,0
2017-12-25T05:38:50.581Z,0
2017-12-25T05:39:52.190Z,0
2017-12-25T05:40:53.794Z,0
2017-12-25T05:41:55.402Z,0
2017-12-25T05:42:57.008Z,0
2017-12-25T05:43:58.611Z,0
2017-12-25T05:45:00.218Z,0
2017-12-25T05:46:01.824Z,0
2017-12-25T05:47:03.422Z,0
2017-12-25T05:48:05.030Z,0
2017-12-25T05:49:06.633Z,0
2017-12-25T05:50:08.237Z,0
2017-12-25T05:51:09.846Z,0
2017-12-25T05:52:11.446Z,0
2017-12-25T05:53:13.054Z,0
2017-12-25T05:54:14.654Z,0
2017-12-25T05:55:16.266Z,0
2017-12-25T05:56:17.868Z,0
2017-12-25T05:57:19.476Z,0
2017-12-25T05:58:21.078Z,0
2017-12-25T05:59:22.681Z,0
2017-12-25T06:00:24.287Z,0
2017-12-25T06:01:25.893Z,0
2017-12-25T06:02:27.492Z,0
2017-12-25T06:03:29.097Z,0
2017-12-25T06:04:30.708Z,0
2017-12-25T06:05:32.314Z,0
2017-12-25T06:06:33.914Z,0
2017-12-25T06:07:35.523Z,0
2017-12-25T06:08:37.124Z,0
2017-12-25T06:09:38.728Z,0
2017-12-25T06:10:40.337Z,0
2017-12-25T06:11:41.943Z,0
2017-12-25T06:12:43.548Z,0
2017-12-25T06:13:45.150Z,0
2017-12-25T06:14:46.755Z,0
2017-12-25T06:15:48.360Z,0
2017-12-25T06:16:49.960Z,0
2017-12-25T06:17:51.565Z,0
2017-12-25T06:18:53.175Z,0
2017-12-25T06:19:54.783Z,0
2017-12-25T06:20:56.380Z,0
2017-12-25T06:21:57.984Z,0
2017-12-25T06:22:59.589Z,0
2017-12-25T06:24:01.194Z,0
2017-12-25T06:25:02.800Z,0
2017-12-25T06:26:04.406Z,0
2017-12-25T06:27:06.009Z,0
2017-12-25T06:28:07.610Z,0
2017-12-25T06:29:09.219Z,0
2017-12-25T06:30:10.823Z,0
2017-12-25T06:31:12.429Z,0
2017-12-25T06:32:14.030Z,0
2017-12-25T06:33:15.639Z,0
2017-12-25T06:34:17.250Z,0
2017-12-25T06:35:18.849Z,0
2017-12-25T06:36:20.453Z,0
2017-12-25T06:37:22.061Z,0
2017-12-25T06:38:23.668Z,0
2017-12-25T06:39:25.270Z,0
2017-12-25T06:40:26.874Z,0
2017-12-25T06:41:28.483Z,0
2017-12-25T06:42:30.083Z,0
2017-12-25T06:43:31.689Z,0
2017-12-25T06:44:33.291Z,0
2017-12-25T06:45:34.901Z,0
2017-12-25T06:46:36.502Z,0
2017-12-25T06:47:38.110Z,0
2017-12-25T06:48:39.713Z,0
2017-12-25T06:49:41.321Z,0
2017-12-25T06:50:42.922Z,0
2017-12-25T06:51:44.530Z,0
2017-12-25T06:52:46.132Z,0
2017-12-25T06:53:47.738Z,0
2017-12-25T06:54:49.340Z,0
2017-12-25T06:55:50.950Z,0
2017-12-25T06:56:52.554Z,0
2017-12-25T06:57:54.156Z,0
2017-12-25T06:58:55.762Z,0
2017-12-25T06:59:57.365Z,0
2017-12-25T07:00:58.973Z,0
2017-12-25T07:02:00.578Z,0
2017-12-25T07:03:02.186Z,0
2017-12-25T07:04:03.788Z,0
2017-12-25T07:05:05.394Z,0
2017-12-25T07:06:06.998Z,0
2017-12-25T07:07:08.605Z,0
2017-12-25T07:08:10.205Z,0
2017-12-25T07:09:11.814Z,0
2017-12-25T07:10:13.418Z,0
2017-12-25T07:11:15.047Z,0
2017-12-25T07:12:16.623Z,0
2017-12-25T07:13:18.234Z,0
2017-12-25T07:14:19.834Z,0
2017-12-25T07:15:21.445Z,0
2017-12-25T07:16:23.049Z,0
2017-12-25T07:17:24.669Z,0
2017-12-25T07:18:26.269Z,0
2017-12-25T07:19:27.877Z,0
2017-12-25T07:20:30.183Z,0
2017-12-25T07:21:31.036Z,0
2017-12-25T07:22:32.637Z,0
2017-12-25T07:23:34.244Z,0
2017-12-25T07:24:35.852Z,0
2017-12-25T07:25:37.455Z,0
2017-12-25T07:26:39.063Z,0
2017-12-25T07:27:40.668Z,0
2017-12-25T07:28:42.270Z,0
2017-12-25T07:29:43.875Z,0
2017-12-25T07:30:45.486Z,0
2017-12-25T07:31:47.090Z,0
2017-12-25T07:32:48.697Z,0
2017-12-25T07:33:50.299Z,0
2017-12-25T07:34:51.909Z,0
2017-12-25T07:35:53.511Z,0
2017-12-25T07:36:55.121Z,0
2017-12-25T07:37:56.724Z,0
2017-12-25T07:38:58.336Z,0
2017-12-25T07:39:59.937Z,5
2017-12-25T07:41:01.545Z,0
2017-12-25T07:42:03.153Z,5
2017-12-25T07:43:04.755Z,5
2017-12-25T07:44:06.361Z,5
2017-12-25T07:45:07.973Z,5
2017-12-25T07:46:09.605Z,5
2017-12-25T07:47:11.187Z,5
2017-12-25T07:48:12.792Z,5
2017-12-25T07:49:14.403Z,5
2017-12-25T07:50:16.014Z,5
2017-12-25T07:51:17.620Z,5
2017-12-25T07:52:20.357Z,5
2017-12-25T07:53:21.929Z,11
2017-12-25T07:54:23.538Z,11
2017-12-25T07:55:25.144Z,5
2017-12-25T07:56:26.808Z,11
2017-12-25T07:57:28.437Z,11
2017-12-25T07:58:30.034Z,11
2017-12-25T07:59:31.644Z,11
2017-12-25T08:00:33.343Z,11
2017-12-25T08:01:34.993Z,11
2017-12-25T08:02:36.556Z,11
2017-12-25T08:03:38.167Z,11
2017-12-25T08:04:39.782Z,11
2017-12-25T08:05:41.390Z,11
2017-12-25T08:06:44.108Z,11
2017-12-25T08:07:45.721Z,11
2017-12-25T08:08:47.329Z,11
2017-12-25T08:09:48.932Z,11
2017-12-25T08:10:50.542Z,11
2017-12-25T08:11:52.147Z,11
2017-12-25T08:12:53.759Z,11
2017-12-25T08:13:55.369Z,11
2017-12-25T08:14:56.982Z,11
2017-12-25T08:15:58.585Z,11
2017-12-25T08:17:00.195Z,16
2017-12-25T08:18:01.806Z,16
2017-12-25T08:19:03.413Z,16
2017-12-25T08:20:05.015Z,16
2017-12-25T08:21:06.629Z,16
2017-12-25T08:22:08.270Z,16
2017-12-25T08:23:09.881Z,16
2017-12-25T08:24:11.486Z,22
2017-12-25T08:25:13.098Z,22
2017-12-25T08:26:14.705Z,22
2017-12-25T08:27:16.363Z,22
2017-12-25T08:28:17.976Z,22
2017-12-25T08:29:19.582Z,22
2017-12-25T08:30:21.189Z,22
2017-12-25T08:31:22.795Z,28
2017-12-25T08:32:24.404Z,22
2017-12-25T08:33:26.370Z,22
2017-12-25T08:34:27.851Z,28
2017-12-25T08:35:30.556Z,33
2017-12-25T08:36:32.263Z,33
2017-12-25T08:37:33.877Z,28
2017-12-25T08:38:35.495Z,33
2017-12-25T08:39:37.105Z,33
2017-12-25T08:40:38.741Z,39
2017-12-25T08:41:40.352Z,39
2017-12-25T08:42:41.984Z,39
2017-12-25T08:43:43.622Z,39
2017-12-25T08:44:45.234Z,39
2017-12-25T08:45:46.849Z,45
2017-12-25T08:46:48.454Z,50
2017-12-25T08:47:50.062Z,50
2017-12-25T08:48:51.667Z,45
2017-12-25T08:49:53.282Z,45
2017-12-25T08:50:54.892Z,39
2017-12-25T08:51:56.542Z,39
2017-12-25T08:52:58.149Z,45
2017-12-25T08:53:59.757Z,39
2017-12-25T08:55:01.373Z,39
2017-12-25T08:56:02.981Z,45
2017-12-25T08:57:04.590Z,39
2017-12-25T08:58:06.197Z,39
2017-12-25T08:59:07.809Z,33
2017-12-25T09:00:09.412Z,50
2017-12-25T09:01:11.018Z,56
2017-12-25T09:02:12.632Z,56
2017-12-25T09:03:14.245Z,50
2017-12-25T09:04:15.858Z,45
2017-12-25T09:05:17.464Z,45
2017-12-25T09:06:19.083Z,56
2017-12-25T09:07:20.679Z,61
2017-12-25T09:08:22.286Z,56
2017-12-25T09:09:23.898Z,50
2017-12-25T09:10:25.508Z,50
2017-12-25T09:11:27.133Z,50
2017-12-25T09:12:28.749Z,56
2017-12-25T09:13:30.364Z,61
2017-12-25T09:14:31.967Z,61
2017-12-25T09:15:33.574Z,61
2017-12-25T09:16:35.192Z,61
2017-12-25T09:17:36.790Z,56
2017-12-25T09:18:38.405Z,50
2017-12-25T09:19:40.014Z,56
2017-12-25T09:20:41.623Z,61
2017-12-25T09:21:43.234Z,50
2017-12-25T09:22:44.841Z,56
2017-12-25T09:23:46.454Z,61
2017-12-25T09:24:48.067Z,67
2017-12-25T09:25:49.679Z,73
2017-12-25T09:26:51.294Z,73
2017-12-25T09:27:52.912Z,78
2017-12-25T09:28:54.512Z,73
2017-12-25T09:29:56.159Z,73
2017-12-25T09:30:57.771Z,90
2017-12-25T09:31:59.391Z,73
2017-12-25T09:33:01.025Z,73
2017-12-25T09:34:02.650Z,73
2017-12-25T09:35:04.350Z,73
2017-12-25T09:36:05.973Z,73
2017-12-25T09:37:07.576Z,67
2017-12-25T09:38:09.189Z,67
2017-12-25T09:39:10.809Z,73
2017-12-25T09:40:12.423Z,73
2017-12-25T09:41:14.062Z,67
2017-12-25T09:42:15.659Z,61
2017-12-25T09:43:17.355Z,56
2017-12-25T09:44:18.965Z,67
2017-12-25T09:45:20.578Z,67
2017-12-25T09:46:22.188Z,67
2017-12-25T09:47:23.802Z,67
2017-12-25T09:48:25.409Z,67
2017-12-25T09:49:27.035Z,61
2017-12-25T09:50:28.644Z,50
2017-12-25T09:51:30.256Z,56
2017-12-25T09:52:31.864Z,61
2017-12-25T09:53:33.476Z,61
2017-12-25T09:54:35.106Z,61
2017-12-25T09:55:36.720Z,56
2017-12-25T09:56:38.333Z,56
2017-12-25T09:57:39.943Z,56
2017-12-25T09:58:41.550Z,50
2017-12-25T09:59:43.156Z,56
2017-12-25T10:00:44.784Z,56
2017-12-25T10:01:46.395Z,61
2017-12-25T10:02:48.002Z,56
2017-12-25T10:03:49.608Z,56
2017-12-25T10:04:51.248Z,50
2017-12-25T10:05:52.855Z,56
2017-12-25T10:06:54.461Z,50
2017-12-25T10:07:56.071Z,56
2017-12-25T10:08:57.684Z,56
2017-12-25T10:09:59.299Z,61
2017-12-25T10:11:00.907Z,50
2017-12-25T10:12:02.530Z,50
2017-12-25T10:13:04.178Z,50
2017-12-25T10:14:05.761Z,67
2017-12-25T10:15:07.377Z,73
2017-12-25T10:16:08.986Z,84
2017-12-25T10:17:10.588Z,84
2017-12-25T10:18:12.203Z,78
2017-12-25T10:19:13.827Z,84
2017-12-25T10:20:15.438Z,84
2017-12-25T10:21:17.050Z,78
2017-12-25T10:22:18.660Z,73
2017-12-25T10:23:20.272Z,78
2017-12-25T10:24:21.936Z,90
2017-12-25T10:25:23.541Z,106
2017-12-25T10:26:25.151Z,112
2017-12-25T10:27:26.775Z,118
2017-12-25T10:28:28.408Z,123
2017-12-25T10:29:30.017Z,118
2017-12-25T10:30:31.625Z,112
2017-12-25T10:31:33.240Z,112
2017-12-25T10:32:34.845Z,112
2017-12-25T10:33:36.467Z,106
2017-12-25T10:34:38.075Z,95
2017-12-25T10:35:39.689Z,84
2017-12-25T10:36:41.294Z,84
2017-12-25T10:37:42.912Z,106
2017-12-25T10:38:44.536Z,123
2017-12-25T10:39:46.144Z,118
2017-12-25T10:40:47.761Z,112
2017-12-25T10:41:49.366Z,118
2017-12-25T10:42:50.983Z,101
2017-12-25T10:43:52.595Z,101
2017-12-25T10:44:54.209Z,112
2017-12-25T10:45:55.820Z,106
2017-12-25T10:46:57.431Z,95
2017-12-25T10:47:59.035Z,101
2017-12-25T10:49:00.670Z,95
2017-12-25T10:50:02.301Z,95
2017-12-25T10:51:03.926Z,101
2017-12-25T10:52:05.542Z,101
2017-12-25T10:53:07.154Z,106
2017-12-25T10:54:08.761Z,112
2017-12-25T10:55:10.405Z,112
2017-12-25T10:56:12.044Z,101
2017-12-25T10:57:13.694Z,95
2017-12-25T10:58:15.303Z,90
2017-12-25T10:59:16.912Z,90
2017-12-25T11:00:18.529Z,78
2017-12-25T11:01:20.164Z,84
2017-12-25T11:02:21.768Z,78
2017-12-25T11:03:23.380Z,78
2017-12-25T11:04:24.993Z,78
2017-12-25T11:05:26.609Z,73
2017-12-25T11:06:28.221Z,90
2017-12-25T11:07:29.844Z,106
2017-12-25T11:08:31.448Z,101
2017-12-25T11:09:33.059Z,106
2017-12-25T11:10:34.670Z,106
2017-12-25T11:11:36.278Z,106
2017-12-25T11:12:37.900Z,106
2017-12-25T11:13:39.513Z,123
2017-12-25T11:14:41.121Z,135
2017-12-25T11:15:42.728Z,123
2017-12-25T11:16:44.342Z,146
2017-12-25T11:17:45.977Z,180
2017-12-25T11:18:47.883Z,174
2017-12-25T11:19:49.493Z,174
2017-12-25T11:20:51.107Z,180
2017-12-25T11:21:52.748Z,163
2017-12-25T11:22:54.367Z,123
2017-12-25T11:23:55.976Z,112
2017-12-25T11:24:57.587Z,129
2017-12-25T11:25:59.219Z,106
2017-12-25T11:27:00.829Z,112
2017-12-25T11:28:02.440Z,118
2017-12-25T11:29:04.057Z,151
2017-12-25T11:30:05.670Z,135
2017-12-25T11:31:07.282Z,123
2017-12-25T11:32:08.889Z,112
2017-12-25T11:33:10.514Z,118
2017-12-25T11:34:12.130Z,123
2017-12-25T11:35:13.743Z,101
2017-12-25T11:36:15.540Z,106
2017-12-25T11:37:17.174Z,129
2017-12-25T11:38:18.790Z,129
2017-12-25T11:39:20.439Z,118
2017-12-25T11:40:22.385Z,101
2017-12-25T11:41:24.033Z,95
2017-12-25T11:42:25.655Z,95
2017-12-25T11:43:27.268Z,95
2017-12-25T11:44:29.165Z,95
2017-12-25T11:45:30.836Z,90
2017-12-25T11:46:32.458Z,90
2017-12-25T11:47:34.074Z,90
2017-12-25T11:48:35.690Z,84
2017-12-25T11:49:37.353Z,84
2017-12-25T11:50:38.914Z,73
2017-12-25T11:51:40.519Z,61
2017-12-25T11:52:42.131Z,73
2017-12-25T11:53:43.739Z,73
2017-12-25T11:54:45.505Z,67
2017-12-25T11:55:47.071Z,73
2017-12-25T11:56:48.686Z,67
2017-12-25T11:57:50.296Z,67
2017-12-25T11:58:51.903Z,67
2017-12-25T11:59:53.513Z,61
2017-12-25T12:00:55.122Z,61
2017-12-25T12:01:56.738Z,61
2017-12-25T12:02:58.345Z,67
2017-12-25T12:03:59.957Z,67
2017-12-25T12:05:01.571Z,78
2017-12-25T12:06:03.193Z,84
2017-12-25T12:07:04.800Z,78
2017-12-25T12:08:06.412Z,78
2017-12-25T12:09:08.023Z,78
2017-12-25T12:10:09.632Z,84
2017-12-25T12:11:11.244Z,78
2017-12-25T12:12:12.860Z,84
2017-12-25T12:13:14.517Z,78
2017-12-25T12:14:16.139Z,73
2017-12-25T12:15:17.746Z,67
2017-12-25T12:16:19.358Z,73
2017-12-25T12:17:20.963Z,73
2017-12-25T12:18:22.583Z,78
2017-12-25T12:19:24.213Z,73
2017-12-25T12:20:25.827Z,73
2017-12-25T12:21:27.433Z,78
2017-12-25T12:22:29.194Z,67
2017-12-25T12:23:30.821Z,67
2017-12-25T12:24:32.472Z,73
2017-12-25T12:25:34.083Z,78
2017-12-25T12:26:35.694Z,73
2017-12-25T12:27:37.304Z,73
2017-12-25T12:28:38.913Z,78
2017-12-25T12:29:40.525Z,78
2017-12-25T12:30:42.129Z,73
2017-12-25T12:31:43.744Z,78
2017-12-25T12:32:45.350Z,84
2017-12-25T12:33:47.758Z,90
2017-12-25T12:34:51.119Z,90
2017-12-25T12:35:52.688Z,78
2017-12-25T12:36:54.305Z,90
2017-12-25T12:37:55.921Z,78
2017-12-25T12:38:57.531Z,78
2017-12-25T12:39:59.145Z,78
2017-12-25T12:41:00.783Z,67
2017-12-25T12:42:02.374Z,67
2017-12-25T12:43:04.009Z,73
2017-12-25T12:44:05.616Z,73
2017-12-25T12:45:07.237Z,73
2017-12-25T12:46:10.265Z,67
2017-12-25T12:47:11.872Z,67
2017-12-25T12:48:13.483Z,84
2017-12-25T12:49:15.094Z,90
2017-12-25T12:50:16.701Z,78
2017-12-25T12:51:18.336Z,67
2017-12-25T12:52:19.950Z,73
2017-12-25T12:53:21.560Z,90
2017-12-25T12:54:23.186Z,90
2017-12-25T12:55:24.795Z,101
2017-12-25T12:56:26.411Z,106
2017-12-25T12:57:28.016Z,95
2017-12-25T12:58:29.625Z,101
2017-12-25T12:59:31.241Z,101
2017-12-25T13:00:32.855Z,95
2017-12-25T13:01:34.461Z,106
2017-12-25T13:02:36.073Z,106
2017-12-25T13:03:37.686Z,123
2017-12-25T13:04:39.300Z,112
2017-12-25T13:05:40.904Z,112
2017-12-25T13:06:42.544Z,106
2017-12-25T13:07:44.148Z,106
2017-12-25T13:08:45.759Z,118
2017-12-25T13:09:47.372Z,106
2017-12-25T13:10:49.019Z,112
2017-12-25T13:11:50.637Z,118
2017-12-25T13:12:52.243Z,129
2017-12-25T13:13:53.858Z,135
2017-12-25T13:14:55.474Z,129
2017-12-25T13:15:57.082Z,135
2017-12-25T13:16:58.697Z,123
2017-12-25T13:18:00.326Z,118
2017-12-25T13:19:01.914Z,123
2017-12-25T13:20:03.525Z,118
2017-12-25T13:21:05.136Z,112
2017-12-25T13:22:06.746Z,112
2017-12-25T13:23:08.359Z,106
2017-12-25T13:24:09.967Z,95
2017-12-25T13:25:11.576Z,95
2017-12-25T13:26:13.183Z,106
2017-12-25T13:27:14.798Z,112
2017-12-25T13:28:16.407Z,112
2017-12-25T13:29:18.019Z,112
2017-12-25T13:30:19.635Z,118
2017-12-25T13:31:21.244Z,112
2017-12-25T13:32:22.868Z,112
2017-12-25T13:33:24.472Z,106
2017-12-25T13:34:26.085Z,106
2017-12-25T13:35:27.694Z,106
2017-12-25T13:36:29.310Z,106
2017-12-25T13:37:30.925Z,106
2017-12-25T13:38:32.543Z,112
2017-12-25T13:39:34.166Z,106
2017-12-25T13:40:35.778Z,106
2017-12-25T13:41:37.397Z,106
2017-12-25T13:42:39.021Z,101
2017-12-25T13:43:40.634Z,106
2017-12-25T13:44:42.250Z,112
2017-12-25T13:45:43.865Z,112
2017-12-25T13:46:45.475Z,106
2017-12-25T13:47:47.082Z,95
2017-12-25T13:48:48.694Z,78
2017-12-25T13:49:50.301Z,73
2017-12-25T13:50:51.939Z,67
2017-12-25T13:51:53.543Z,67
2017-12-25T13:52:55.155Z,73
2017-12-25T13:53:56.766Z,73
2017-12-25T13:54:58.379Z,78
2017-12-25T13:55:59.984Z,84
2017-12-25T13:57:01.599Z,84
2017-12-25T13:58:03.208Z,78
2017-12-25T13:59:04.816Z,73
2017-12-25T14:00:06.422Z,73
2017-12-25T14:01:08.032Z,73
2017-12-25T14:02:09.642Z,78
2017-12-25T14:03:11.256Z,78
2017-12-25T14:04:12.854Z,84
2017-12-25T14:05:14.467Z,84
2017-12-25T14:06:16.082Z,90
2017-12-25T14:07:17.690Z,95
2017-12-25T14:08:19.295Z,95
2017-12-25T14:09:20.920Z,90
2017-12-25T14:10:22.528Z,84
2017-12-25T14:11:24.136Z,78
2017-12-25T14:12:25.751Z,73
2017-12-25T14:13:27.356Z,67
2017-12-25T14:14:28.989Z,61
2017-12-25T14:15:30.598Z,73
2017-12-25T14:16:32.215Z,67
2017-12-25T14:17:33.820Z,61
2017-12-25T14:18:35.424Z,61
2017-12-25T14:19:37.038Z,67
2017-12-25T14:20:38.645Z,73
2017-12-25T14:21:40.262Z,73
2017-12-25T14:22:41.872Z,67
2017-12-25T14:23:43.478Z,61
2017-12-25T14:24:45.108Z,61
2017-12-25T14:25:46.698Z,67
2017-12-25T14:26:48.313Z,50
2017-12-25T14:27:49.932Z,45
2017-12-25T14:28:51.550Z,39
2017-12-25T14:29:53.152Z,45
2017-12-25T14:30:54.778Z,45
2017-12-25T14:31:56.397Z,39
2017-12-25T14:32:58.028Z,33
2017-12-25T14:33:59.629Z,33
2017-12-25T14:35:01.242Z,33
2017-12-25T14:36:02.846Z,33
2017-12-25T14:37:04.471Z,33
2017-12-25T14:38:06.074Z,45
2017-12-25T14:39:07.684Z,45
2017-12-25T14:40:09.294Z,45
2017-12-25T14:41:10.913Z,39
2017-12-25T14:42:12.521Z,33
2017-12-25T14:43:14.142Z,39
2017-12-25T14:44:15.748Z,39
2017-12-25T14:45:17.365Z,39
2017-12-25T14:46:18.993Z,33
2017-12-25T14:47:20.601Z,33
2017-12-25T14:48:22.212Z,28
2017-12-25T14:49:23.839Z,33
2017-12-25T14:50:25.454Z,33
2017-12-25T14:51:27.061Z,33